Cooktown, Australia
Current Conditions -  °F | °C
As of 6:00 AM on Wednesday 22 Oct 2014 (Local Time) from YBCS Reporting Station
Rain Showers Rain Showers  
Wind Chill: 72°   Ceiling: Unl
Heat Index: 72°   Visibility: 6mi
Dew Point: 61°   Wind: 10mph
Humidity: 69%   Direction: 160°SSE
Pressure: 30.03"   Gusts: NA
Location:  15.47°S, 145.25°E
Report Text: YBCS 212000Z 16009KT 9999 VCSH FEW026 22/16 Q1017
Loading
Personal Weather Stations






























Interactive Weather Map
Tropical Storm Tracking
New forecast layout! Learn more

10-Day Weather Forecast

Advertisements
Track Severe Weather on mobile